Time;durP1;ratioP1;P1;durP2;ratioP2;P2;SDS_P1;SDS_P2;PMS_P1;PMS_P2;Temp;Humidity;BMP_temperature;BMP_pressure;BME280_temperature;BME280_humidity;BME280_pressure;Samples;Min_cycle;Max_cycle;Signal;HPM_P1;HPM_P2
2024/03/31 00:00:11;;;;;;;3.60;1.73;;;486.40;1356.80;;;;;;5096428;28;20024;-75
2024/03/31 00:02:38;;;;;;;7.30;2.10;;;486.60;1305.60;;;;;;5102931;28;20280;-74
2024/03/31 00:05:04;;;;;;;4.55;1.92;;;486.80;1305.60;;;;;;5107024;28;20432;-74
2024/03/31 00:07:30;;;;;;;4.80;2.05;;;486.80;1305.60;;;;;;5089965;28;20016;-76
2024/03/31 00:09:56;;;;;;;4.28;1.75;;;486.80;1305.60;;;;;;5082967;28;20050;-76
2024/03/31 00:12:22;;;;;;;4.00;1.52;;;486.90;1280.00;;;;;;5086416;28;20036;-75
2024/03/31 00:14:48;;;;;;;3.05;1.40;;;486.80;1305.60;;;;;;5100649;28;20105;-74
2024/03/31 00:17:14;;;;;;;5.55;1.80;;;486.80;1305.60;;;;;;5094725;28;20086;-75
2024/03/31 00:19:40;;;;;;;4.80;1.80;;;486.70;1356.80;;;;;;5101362;28;20093;-74
2024/03/31 00:22:05;;;;;;;6.30;2.33;;;486.50;1356.80;;;;;;5099636;28;20017;-74
2024/03/31 00:24:31;;;;;;;5.03;1.85;;;486.40;1382.40;;;;;;5089713;28;20073;-75
2024/03/31 00:26:57;;;;;;;4.32;1.90;;;486.40;1382.40;;;;;;5094816;28;20081;-75
2024/03/31 00:29:23;;;;;;;5.57;1.95;;;461.70;1382.40;;;;;;5095577;28;20020;-74
2024/03/31 00:31:49;;;;;;;3.28;1.70;;;461.70;1408.00;;;;;;5090801;28;20570;-74
2024/03/31 00:34:15;;;;;;;3.83;1.95;;;461.70;1408.00;;;;;;5083618;28;20493;-75
2024/03/31 00:36:43;;;;;;;3.60;1.25;;;461.70;1408.00;;;;;;5092386;28;20096;-73
2024/03/31 00:39:09;;;;;;;3.70;1.83;;;461.70;1382.40;;;;;;5095184;28;20424;-74
2024/03/31 00:41:35;;;;;;;6.88;1.90;;;486.40;1382.40;;;;;;5094698;28;20028;-74
2024/03/31 00:44:02;;;;;;;6.97;2.25;;;486.50;1356.80;;;;;;5083200;28;20039;-74
2024/03/31 00:46:28;;;;;;;7.97;2.35;;;486.50;1356.80;;;;;;5076925;28;20480;-75
2024/03/31 00:48:54;;;;;;;4.50;1.80;;;486.50;1356.80;;;;;;5092346;28;20032;-74
2024/03/31 00:51:20;;;;;;;3.42;1.90;;;486.50;1356.80;;;;;;5099351;28;20047;-74
2024/03/31 00:53:46;;;;;;;3.45;1.73;;;486.60;1331.20;;;;;;5085925;28;20556;-75
2024/03/31 00:56:12;;;;;;;2.95;1.70;;;486.70;1331.20;;;;;;5088224;28;20071;-74
2024/03/31 00:58:38;;;;;;;4.38;2.08;;;486.70;1331.20;;;;;;5095228;28;20032;-75
2024/03/31 01:01:04;;;;;;;5.30;1.77;;;486.80;1331.20;;;;;;5085382;28;20020;-74
2024/03/31 01:03:34;;;;;;;3.05;1.60;;;486.80;1305.60;;;;;;5087653;28;20028;-73
2024/03/31 01:06:09;;;;;;;8.77;2.03;;;486.70;1331.20;;;;;;5082461;28;20025;-74
2024/03/31 01:08:35;;;;;;;7.45;1.63;;;486.80;1331.20;;;;;;5083176;28;20024;-74
2024/03/31 01:11:02;;;;;;;7.82;1.80;;;486.70;1331.20;;;;;;5099202;28;20020;-75
2024/03/31 01:13:28;;;;;;;6.22;2.10;;;486.60;1356.80;;;;;;5078581;28;20048;-74
2024/03/31 01:15:55;;;;;;;5.90;2.30;;;486.60;1356.80;;;;;;5072416;28;20017;-74
2024/03/31 01:18:21;;;;;;;6.93;2.17;;;486.60;1382.40;;;;;;5069085;28;20016;-73
2024/03/31 01:20:46;;;;;;;4.63;1.85;;;486.50;1382.40;;;;;;5070734;28;20161;-75
2024/03/31 01:23:15;;;;;;;3.58;1.95;;;486.50;1382.40;;;;;;5070499;28;20386;-74
2024/03/31 01:25:41;;;;;;;4.38;2.00;;;486.50;1382.40;;;;;;5065793;28;20020;-73
2024/03/31 01:28:07;;;;;;;6.25;2.72;;;486.50;1382.40;;;;;;5064412;28;20040;-73
2024/03/31 01:30:33;;;;;;;8.23;2.40;;;486.50;1382.40;;;;;;5066952;28;20021;-74
2024/03/31 01:32:59;;;;;;;6.38;2.10;;;486.50;1382.40;;;;;;5061881;28;20037;-74
2024/03/31 01:35:25;;;;;;;6.38;2.28;;;486.50;1382.40;;;;;;5054842;28;20053;-73
2024/03/31 01:37:52;;;;;;;8.77;2.38;;;486.40;1408.00;;;;;;5069029;28;20063;-74
2024/03/31 01:40:18;;;;;;;6.70;3.03;;;486.50;1408.00;;;;;;5074760;28;20028;-73
2024/03/31 01:42:45;;;;;;;6.05;3.22;;;486.50;1408.00;;;;;;5063722;28;20029;-73
2024/03/31 01:45:12;;;;;;;6.15;3.08;;;486.50;1408.00;;;;;;5041841;28;20044;-73
2024/03/31 01:47:37;;;;;;;6.82;2.58;;;486.50;1408.00;;;;;;5068499;28;20469;-74
2024/03/31 01:50:04;;;;;;;7.50;2.72;;;486.50;1408.00;;;;;;5073427;28;20079;-74
2024/03/31 01:52:30;;;;;;;10.13;3.00;;;486.40;1408.00;;;;;;5073257;28;20033;-74
2024/03/31 01:54:56;;;;;;;8.60;3.25;;;486.40;1408.00;;;;;;5073661;28;20108;-74
2024/03/31 01:57:22;;;;;;;13.80;3.58;;;486.40;1433.60;;;;;;5073672;28;20024;-75
2024/03/31 01:59:48;;;;;;;7.20;2.88;;;461.70;1459.20;;;;;;5073796;28;20025;-74
2024/03/31 02:02:13;;;;;;;8.82;2.80;;;461.50;1459.20;;;;;;5073173;28;20027;-75
2024/03/31 02:04:39;;;;;;;6.25;2.80;;;461.50;1459.20;;;;;;5044523;28;20029;-74
2024/03/31 02:07:05;;;;;;;6.45;3.17;;;461.40;1484.80;;;;;;5074668;28;20016;-75
2024/03/31 02:09:31;;;;;;;7.00;2.80;;;461.30;1484.80;;;;;;5093842;28;20031;-74
2024/03/31 02:11:57;;;;;;;7.57;3.15;;;461.40;1484.80;;;;;;5079480;28;20587;-74
2024/03/31 02:14:22;;;;;;;8.75;3.08;;;461.30;1484.80;;;;;;5103004;28;20034;-74
2024/03/31 02:16:48;;;;;;;10.10;3.45;;;461.20;1484.80;;;;;;5106963;28;20016;-74
2024/03/31 02:19:14;;;;;;;4.85;2.60;;;461.30;1484.80;;;;;;5093520;28;20032;-74
2024/03/31 02:21:40;;;;;;;6.60;2.88;;;461.30;1484.80;;;;;;5097314;28;20020;-74
2024/03/31 02:24:06;;;;;;;8.43;2.92;;;461.40;1459.20;;;;;;5113322;28;20023;-75
2024/03/31 02:26:34;;;;;;;7.22;2.47;;;461.40;1459.20;;;;;;5082282;28;20032;-75
2024/03/31 02:29:02;;;;;;;6.25;2.85;;;461.50;1459.20;;;;;;5093124;28;20398;-74
2024/03/31 02:31:28;;;;;;;6.85;3.00;;;461.50;1433.60;;;;;;5111275;28;20551;-74
2024/03/31 02:33:54;;;;;;;4.75;2.20;;;461.60;1433.60;;;;;;5113430;28;20114;-74
2024/03/31 02:36:20;;;;;;;6.55;2.50;;;461.60;1433.60;;;;;;5090328;28;20023;-75
2024/03/31 02:38:46;;;;;;;7.28;2.38;;;461.70;1408.00;;;;;;5084433;28;20461;-74
2024/03/31 02:41:12;;;;;;;9.32;2.70;;;461.70;1408.00;;;;;;5095014;28;20449;-74
2024/03/31 02:43:37;;;;;;;5.88;2.63;;;461.70;1433.60;;;;;;5073096;28;20453;-74
2024/03/31 02:46:04;;;;;;;9.75;2.60;;;461.50;1433.60;;;;;;5089476;28;20107;-76
2024/03/31 02:48:29;;;;;;;4.03;2.33;;;461.50;1433.60;;;;;;5104894;28;20096;-76
2024/03/31 02:50:55;;;;;;;5.45;2.47;;;461.50;1459.20;;;;;;5092856;28;20024;-75
2024/03/31 02:53:21;;;;;;;6.25;2.03;;;461.50;1459.20;;;;;;5095119;28;20137;-75
2024/03/31 02:55:47;;;;;;;9.52;2.40;;;461.40;1459.20;;;;;;5110589;28;20465;-74
2024/03/31 02:58:13;;;;;;;5.65;2.50;;;461.40;1459.20;;;;;;5105012;28;20365;-74
2024/03/31 03:00:39;;;;;;;8.43;2.60;;;461.50;1459.20;;;;;;5103606;28;20027;-75
2024/03/31 03:03:04;;;;;;;4.47;2.10;;;461.40;1433.60;;;;;;5093560;28;20032;-74
2024/03/31 03:05:30;;;;;;;8.18;2.80;;;461.40;1459.20;;;;;;5088097;28;20020;-75
2024/03/31 03:07:56;;;;;;;6.50;2.88;;;461.30;1459.20;;;;;;5094711;28;20397;-75
2024/03/31 03:10:22;;;;;;;4.38;2.22;;;461.40;1459.20;;;;;;5097215;28;20016;-75
2024/03/31 03:12:48;;;;;;;4.05;2.20;;;461.30;1459.20;;;;;;5096956;28;20121;-75
2024/03/31 03:15:14;;;;;;;8.25;2.78;;;461.30;1484.80;;;;;;5097034;28;20024;-74
2024/03/31 03:17:39;;;;;;;7.15;2.42;;;461.20;1484.80;;;;;;5097024;28;20027;-75
2024/03/31 03:20:06;;;;;;;5.95;2.55;;;461.20;1484.80;;;;;;5096791;28;20035;-75
2024/03/31 03:22:35;;;;;;;8.73;2.80;;;461.20;1484.80;;;;;;5096690;28;20032;-74
2024/03/31 03:25:01;;;;;;;4.10;2.65;;;461.20;1484.80;;;;;;5096895;28;20032;-75
2024/03/31 03:27:28;;;;;;;4.80;2.13;;;461.10;1510.40;;;;;;5096928;28;20039;-75
2024/03/31 03:29:54;;;;;;;5.80;2.85;;;461.00;1510.40;;;;;;5097033;28;20035;-74
2024/03/31 03:32:20;;;;;;;6.10;2.45;;;460.90;1536.00;;;;;;5096618;28;20032;-75
2024/03/31 03:34:46;;;;;;;7.32;2.72;;;460.80;1561.60;;;;;;5096841;28;20500;-75
2024/03/31 03:37:12;;;;;;;6.65;2.33;;;460.80;1561.60;;;;;;5096741;28;20059;-75
2024/03/31 03:39:39;;;;;;;5.03;2.20;;;460.80;1561.60;;;;;;5100675;28;20469;-75
2024/03/31 03:42:05;;;;;;;4.70;2.10;;;436.10;1536.00;;;;;;5107917;28;20043;-74
2024/03/31 03:44:32;;;;;;;5.45;2.17;;;436.10;1561.60;;;;;;5111192;28;20016;-75
2024/03/31 03:46:57;;;;;;;11.85;2.97;;;436.00;1561.60;;;;;;5108066;28;20121;-75
2024/03/31 03:49:23;;;;;;;6.00;2.28;;;436.00;1561.60;;;;;;5093646;28;20517;-75
2024/03/31 03:51:49;;;;;;;7.07;2.80;;;435.90;1561.60;;;;;;5096099;28;20028;-74
2024/03/31 03:54:15;;;;;;;5.47;2.03;;;436.00;1561.60;;;;;;5111062;28;20031;-75
2024/03/31 03:56:44;;;;;;;4.80;1.92;;;436.00;1536.00;;;;;;5116607;28;20028;-75
2024/03/31 03:59:12;;;;;;;9.07;2.42;;;436.10;1536.00;;;;;;5102362;28;20025;-75
2024/03/31 04:01:38;;;;;;;6.65;2.40;;;460.80;1561.60;;;;;;5097463;28;20107;-75
2024/03/31 04:04:04;;;;;;;6.00;2.45;;;460.80;1561.60;;;;;;5086046;28;20108;-75
2024/03/31 04:06:30;;;;;;;6.97;2.42;;;460.80;1561.60;;;;;;5095161;28;20031;-74
2024/03/31 04:08:56;;;;;;;5.78;2.47;;;460.90;1561.60;;;;;;5095990;28;20461;-74
2024/03/31 04:11:22;;;;;;;7.28;2.60;;;461.00;1561.60;;;;;;5095842;28;20027;-74
2024/03/31 04:13:48;;;;;;;5.80;2.53;;;461.10;1561.60;;;;;;5109130;28;20048;-75
2024/03/31 04:16:14;;;;;;;4.63;2.13;;;461.20;1536.00;;;;;;5109227;28;20062;-74
2024/03/31 04:18:41;;;;;;;7.47;2.47;;;461.20;1587.20;;;;;;5095859;28;20090;-75
2024/03/31 04:21:07;;;;;;;10.13;3.25;;;461.20;1587.20;;;;;;5095519;28;20047;-74
2024/03/31 04:23:33;;;;;;;6.68;2.55;;;461.20;1612.80;;;;;;5095042;28;20028;-75
2024/03/31 04:25:59;;;;;;;7.60;2.70;;;461.10;1612.80;;;;;;5088996;28;20016;-75
2024/03/31 04:28:25;;;;;;;8.40;2.85;;;461.00;1612.80;;;;;;5115711;28;20531;-74
2024/03/31 04:30:51;;;;;;;5.95;2.30;;;460.90;1612.80;;;;;;5098026;28;20529;-74
2024/03/31 04:33:17;;;;;;;5.68;2.45;;;436.10;1587.20;;;;;;5102136;28;20032;-74
2024/03/31 04:35:43;;;;;;;6.55;2.53;;;436.10;1612.80;;;;;;5115683;28;20015;-74
2024/03/31 04:38:09;;;;;;;4.80;2.53;;;436.00;1612.80;;;;;;5115371;28;20027;-74
2024/03/31 04:40:34;;;;;;;3.78;1.98;;;436.00;1638.40;;;;;;5115853;28;20031;-74
2024/03/31 04:43:01;;;;;;;5.97;2.53;;;436.00;1638.40;;;;;;5098773;28;20028;-75
2024/03/31 04:45:28;;;;;;;9.73;3.33;;;435.90;1638.40;;;;;;5104659;28;20049;-75
2024/03/31 04:47:54;;;;;;;6.47;2.45;;;435.80;1664.00;;;;;;5109590;28;20466;-74
2024/03/31 04:50:21;;;;;;;6.75;2.28;;;435.80;1664.00;;;;;;5084706;28;20019;-74
2024/03/31 04:52:47;;;;;;;10.50;2.38;;;435.70;1715.20;;;;;;5097991;28;20024;-74
2024/03/31 04:55:13;;;;;;;6.63;2.65;;;435.60;1715.20;;;;;;5115609;28;20028;-74
2024/03/31 04:57:40;;;;;;;6.28;2.20;;;435.60;1715.20;;;;;;5101747;28;20027;-74
2024/03/31 05:00:08;;;;;;;7.32;2.75;;;435.50;1740.80;;;;;;5115432;28;20106;-75
2024/03/31 05:02:34;;;;;;;9.00;2.03;;;435.60;1740.80;;;;;;5112307;28;20028;-74
2024/03/31 05:05:00;;;;;;;13.68;2.85;;;435.60;1740.80;;;;;;5096722;28;20031;-74
2024/03/31 05:07:25;;;;;;;4.53;2.05;;;435.60;1740.80;;;;;;5095011;28;20099;-74
2024/03/31 05:09:51;;;;;;;6.95;2.97;;;435.60;1766.40;;;;;;5094709;28;20546;-74
2024/03/31 05:12:17;;;;;;;8.32;2.65;;;435.60;1766.40;;;;;;5107753;28;20040;-75
2024/03/31 05:14:43;;;;;;;8.05;2.17;;;435.70;1766.40;;;;;;5105030;28;20469;-74
2024/03/31 05:17:08;;;;;;;7.35;2.60;;;435.70;1766.40;;;;;;5096811;28;20039;-74
2024/03/31 05:19:34;;;;;;;4.95;2.08;;;435.80;1792.00;;;;;;5094707;28;20100;-74
2024/03/31 05:22:00;;;;;;;7.07;2.47;;;435.90;1766.40;;;;;;5111515;28;20035;-74
2024/03/31 05:24:26;;;;;;;6.18;2.45;;;435.90;1792.00;;;;;;5114663;28;20020;-74
2024/03/31 05:26:52;;;;;;;10.73;2.97;;;435.90;1792.00;;;;;;5110530;28;20048;-74
2024/03/31 05:29:20;;;;;;;12.13;2.80;;;436.00;1792.00;;;;;;5104850;28;20024;-75
2024/03/31 05:31:46;;;;;;;11.55;3.42;;;436.00;1817.60;;;;;;5096720;28;20012;-74
2024/03/31 05:34:12;;;;;;;7.18;2.53;;;436.10;1843.20;;;;;;5094238;28;20036;-74
2024/03/31 05:36:38;;;;;;;7.00;2.50;;;436.10;1843.20;;;;;;5094402;28;20468;-75
2024/03/31 05:39:04;;;;;;;5.05;2.50;;;460.80;1868.80;;;;;;5094039;28;20099;-74
2024/03/31 05:41:30;;;;;;;7.20;2.83;;;460.80;1868.80;;;;;;5106566;28;20043;-74
2024/03/31 05:43:55;;;;;;;9.43;3.78;;;436.10;1843.20;;;;;;5094130;28;20047;-75
2024/03/31 05:46:21;;;;;;;10.73;2.60;;;436.10;1868.80;;;;;;5096024;28;20107;-74
2024/03/31 05:48:47;;;;;;;9.73;3.17;;;436.10;1843.20;;;;;;5092577;28;20050;-75
2024/03/31 05:51:13;;;;;;;10.18;2.65;;;436.10;1868.80;;;;;;5089782;28;20027;-75
2024/03/31 05:53:39;;;;;;;10.05;3.28;;;436.10;1843.20;;;;;;5091785;28;20040;-74
2024/03/31 05:56:05;;;;;;;9.35;2.67;;;460.80;1868.80;;;;;;5093476;28;20165;-73
2024/03/31 05:58:31;;;;;;;6.60;2.50;;;460.80;1868.80;;;;;;5089211;28;20120;-76
2024/03/31 06:00:57;;;;;;;8.73;2.80;;;460.80;1894.40;;;;;;5082633;28;20017;-75
2024/03/31 06:03:22;;;;;;;9.13;2.83;;;460.80;1894.40;;;;;;5076240;28;20469;-75
2024/03/31 06:05:48;;;;;;;8.70;3.42;;;460.80;1920.00;;;;;;5100676;28;20094;-75
2024/03/31 06:08:14;;;;;;;14.45;3.22;;;460.80;1945.60;;;;;;5104424;28;20035;-74
2024/03/31 06:10:40;;;;;;;9.95;2.47;;;460.80;1920.00;;;;;;5076297;28;20017;-75
2024/03/31 06:13:06;;;;;;;11.00;2.67;;;460.80;1920.00;;;;;;5076350;28;20048;-75
2024/03/31 06:15:32;;;;;;;7.60;2.97;;;460.90;1920.00;;;;;;5052299;28;20450;-75
2024/03/31 06:17:58;;;;;;;6.68;2.60;;;460.90;1945.60;;;;;;5066507;28;20053;-74
2024/03/31 06:20:25;;;;;;;6.68;3.00;;;460.90;1945.60;;;;;;5060929;28;20048;-74
2024/03/31 06:22:51;;;;;;;7.63;2.63;;;461.00;1945.60;;;;;;5072862;28;20090;-75
2024/03/31 06:25:17;;;;;;;9.50;4.30;;;461.00;1996.80;;;;;;5069583;28;20472;-74
2024/03/31 06:27:43;;;;;;;11.20;4.63;;;461.00;1996.80;;;;;;5069821;28;20019;-75
2024/03/31 06:30:09;;;;;;;10.82;3.80;;;461.00;1996.80;;;;;;5073096;28;20437;-73
2024/03/31 06:32:35;;;;;;;9.32;4.10;;;461.00;1996.80;;;;;;5067059;28;20037;-74
2024/03/31 06:35:03;;;;;;;6.78;3.03;;;461.00;2022.40;;;;;;5074834;28;20112;-74
2024/03/31 06:37:29;;;;;;;8.27;3.25;;;460.90;2073.60;;;;;;5069167;28;20029;-75
2024/03/31 06:39:55;;;;;;;7.22;3.45;;;461.10;2099.20;;;;;;5078272;28;20026;-74
2024/03/31 06:42:20;;;;;;;10.52;3.10;;;461.10;2099.20;;;;;;5076637;28;20051;-76
2024/03/31 06:44:46;;;;;;;8.18;3.42;;;461.00;2150.40;;;;;;5067963;28;20095;-76
2024/03/31 06:47:12;;;;;;;7.90;3.00;;;461.10;2150.40;;;;;;5060476;28;20029;-74
2024/03/31 06:49:39;;;;;;;12.15;2.38;;;461.10;2124.80;;;;;;5067567;28;20040;-75
2024/03/31 06:52:05;;;;;;;9.63;3.97;;;461.20;2099.20;;;;;;5064143;28;20025;-75
2024/03/31 06:54:31;;;;;;;12.95;3.78;;;461.20;2150.40;;;;;;5068311;28;20036;-74
2024/03/31 06:56:56;;;;;;;14.82;3.20;;;461.30;2124.80;;;;;;5075855;28;20044;-75
2024/03/31 06:59:22;;;;;;;10.00;2.45;;;461.50;2150.40;;;;;;5075385;28;20090;-74
2024/03/31 07:01:48;;;;;;;8.48;2.80;;;461.50;2099.20;;;;;;5076551;28;20025;-74
2024/03/31 07:04:15;;;;;;;8.90;3.53;;;461.70;2073.60;;;;;;5082624;28;20107;-74
2024/03/31 07:06:41;;;;;;;13.32;3.13;;;461.70;2022.40;;;;;;5061787;28;20029;-75
2024/03/31 07:09:07;;;;;;;10.25;3.60;;;486.40;2022.40;;;;;;5073736;28;20020;-75
2024/03/31 07:11:33;;;;;;;10.15;2.90;;;486.50;2022.40;;;;;;5068693;28;20432;-75
2024/03/31 07:13:59;;;;;;;12.15;3.60;;;486.50;1996.80;;;;;;5087551;28;20051;-75
2024/03/31 07:16:25;;;;;;;9.82;3.40;;;486.60;1996.80;;;;;;5097875;28;20024;-74
2024/03/31 07:18:51;;;;;;;8.70;2.97;;;486.70;1971.20;;;;;;5096934;28;20028;-74
2024/03/31 07:21:17;;;;;;;5.97;2.42;;;486.70;1920.00;;;;;;5094897;28;20077;-75
2024/03/31 07:23:46;;;;;;;21.80;4.97;;;486.80;1945.60;;;;;;5092395;28;20035;-74
2024/03/31 07:26:13;;;;;;;10.93;2.92;;;486.90;1945.60;;;;;;5082842;28;20183;-74
2024/03/31 07:28:39;;;;;;;7.68;3.22;;;487.00;1894.40;;;;;;5074269;28;20470;-73
2024/03/31 07:31:05;;;;;;;7.28;3.08;;;487.00;1894.40;;;;;;5087695;28;20024;-75
2024/03/31 07:33:31;;;;;;;18.75;3.47;;;487.20;1920.00;;;;;;5082481;28;20040;-74
2024/03/31 07:35:58;;;;;;;11.15;3.90;;;487.30;1894.40;;;;;;5088391;28;20016;-79
2024/03/31 07:38:24;;;;;;;13.30;3.63;;;512.10;1843.20;;;;;;5081409;28;20066;-75
2024/03/31 07:40:50;;;;;;;14.65;4.00;;;512.40;1817.60;;;;;;5087250;28;20074;-75
2024/03/31 07:43:24;;;;;;;8.65;3.33;;;512.60;1817.60;;;;;;5065589;28;20024;-75
2024/03/31 07:45:50;;;;;;;6.47;2.80;;;512.60;1868.80;;;;;;5093305;28;20458;-75
2024/03/31 07:48:16;;;;;;;15.32;4.07;;;512.50;1843.20;;;;;;5086015;28;20042;-75
2024/03/31 07:50:42;;;;;;;18.63;3.58;;;512.40;1817.60;;;;;;5088489;28;20071;-75
2024/03/31 07:53:08;;;;;;;9.15;3.25;;;512.40;1817.60;;;;;;5091364;28;20075;-75
2024/03/31 07:55:34;;;;;;;9.80;4.05;;;512.70;1817.60;;;;;;5099558;28;20026;-76
2024/03/31 07:58:00;;;;;;;13.02;3.67;;;537.60;1817.60;;;;;;5093853;28;20078;-75
2024/03/31 08:00:26;;;;;;;13.07;3.80;;;537.90;1792.00;;;;;;5102823;28;20024;-75
2024/03/31 08:02:52;;;;;;;13.00;4.03;;;538.10;1766.40;;;;;;5098514;28;20073;-75
2024/03/31 08:05:18;;;;;;;11.32;3.85;;;538.40;1715.20;;;;;;5100613;28;20072;-75
2024/03/31 08:07:44;;;;;;;11.70;3.60;;;563.30;1715.20;;;;;;5091003;28;20474;-76
2024/03/31 08:10:09;;;;;;;11.48;3.00;;;563.50;1715.20;;;;;;5080169;28;20032;-75
2024/03/31 08:12:35;;;;;;;16.55;3.10;;;563.70;1664.00;;;;;;5069754;28;20123;-75
2024/03/31 08:15:01;;;;;;;14.35;3.67;;;563.70;1587.20;;;;;;5092001;28;20043;-75
2024/03/31 08:17:27;;;;;;;9.70;3.30;;;563.90;1587.20;;;;;;5080109;28;20024;-75
2024/03/31 08:19:53;;;;;;;11.35;3.25;;;563.60;1587.20;;;;;;5089651;28;20051;-74
2024/03/31 08:22:19;;;;;;;14.55;3.42;;;563.50;1561.60;;;;;;5089588;28;20029;-75
2024/03/31 08:24:48;;;;;;;13.00;3.47;;;563.60;1587.20;;;;;;5086029;28;20036;-75
2024/03/31 08:27:15;;;;;;;15.43;3.30;;;563.70;1561.60;;;;;;5070054;28;20031;-74
2024/03/31 08:29:41;;;;;;;7.72;3.20;;;563.80;1587.20;;;;;;5098636;28;20426;-75
2024/03/31 08:32:06;;;;;;;7.82;3.28;;;564.10;1536.00;;;;;;5093830;28;20024;-74
2024/03/31 08:34:33;;;;;;;17.75;3.60;;;564.00;1536.00;;;;;;5096846;28;20031;-74
2024/03/31 08:37:00;;;;;;;7.10;2.65;;;563.90;1561.60;;;;;;5086868;28;20016;-74
2024/03/31 08:39:25;;;;;;;16.00;2.95;;;564.10;1561.60;;;;;;5083842;28;20103;-78
2024/03/31 08:42:06;;;;;;;7.82;3.38;;;;;;;;;;5091515;28;20089;-75
2024/03/31 08:44:33;;;;;;;13.20;3.67;;;589.20;1484.80;;;;;;5085111;28;20038;-75
2024/03/31 08:47:00;;;;;;;9.90;2.92;;;589.70;1459.20;;;;;;5082832;28;20017;-75
2024/03/31 08:49:25;;;;;;;11.38;3.15;;;589.70;1408.00;;;;;;5089016;28;20024;-73
2024/03/31 08:51:52;;;;;;;13.73;2.47;;;614.60;1382.40;;;;;;5078479;28;20432;-74
2024/03/31 08:54:18;;;;;;;10.38;2.83;;;614.60;1382.40;;;;;;5075297;28;20533;-73
2024/03/31 08:56:47;;;;;;;15.15;3.10;;;614.70;1356.80;;;;;;5086834;28;20024;-73
2024/03/31 08:59:16;;;;;;;15.60;3.20;;;614.90;1356.80;;;;;;5076378;28;20016;-73
2024/03/31 09:01:47;;;;;;;11.70;2.95;;;615.10;1356.80;;;;;;5087423;28;20485;-74
2024/03/31 09:04:14;;;;;;;13.57;2.65;;;615.20;1305.60;;;;;;5071184;28;20077;-74
2024/03/31 09:06:39;;;;;;;9.43;2.65;;;640.00;1331.20;;;;;;5096469;28;20028;-74
2024/03/31 09:09:06;;;;;;;10.13;2.95;;;640.20;1280.00;;;;;;5097560;28;20027;-74
2024/03/31 09:11:32;;;;;;;14.57;3.92;;;640.20;1305.60;;;;;;5088112;28;20021;-73
2024/03/31 09:13:58;;;;;;;10.05;3.08;;;640.10;1254.40;;;;;;5092012;28;20066;-74
2024/03/31 09:16:24;;;;;;;16.10;3.17;;;640.50;1177.60;;;;;;5080954;28;20031;-73
2024/03/31 09:18:51;;;;;;;13.50;3.30;;;640.50;1177.60;;;;;;5079851;28;20020;-73
2024/03/31 09:21:16;;;;;;;14.40;3.30;;;640.50;1152.00;;;;;;5084236;28;20062;-75
2024/03/31 09:23:43;;;;;;;18.05;3.70;;;640.80;1100.80;;;;;;5079191;28;20036;-75
2024/03/31 09:26:10;;;;;;;15.10;3.90;;;640.90;1049.60;;;;;;5088273;28;20048;-76
2024/03/31 09:28:36;;;;;;;16.83;3.20;;;640.90;1024.00;;;;;;5099101;28;20046;-73
2024/03/31 09:31:03;;;;;;;17.23;3.50;;;640.90;1049.60;;;;;;5089902;28;20367;-74
2024/03/31 09:33:38;;;;;;;11.65;3.35;;;665.80;1075.20;;;;;;5072662;28;20037;-73
2024/03/31 09:36:05;;;;;;;12.93;3.58;;;665.90;1100.80;;;;;;5089908;28;20027;-74
2024/03/31 09:38:31;;;;;;;18.63;3.72;;;665.70;1100.80;;;;;;5095214;28;20024;-74
2024/03/31 09:40:58;;;;;;;17.05;3.90;;;665.70;1024.00;;;;;;5084181;28;20070;-74
2024/03/31 09:43:25;;;;;;;18.90;3.88;;;665.70;1049.60;;;;;;5098662;28;20012;-74
2024/03/31 09:45:51;;;;;;;13.70;3.58;;;665.60;1024.00;;;;;;5085232;28;20021;-75
2024/03/31 09:48:24;;;;;;;17.00;4.00;;;665.90;1049.60;;;;;;5086614;28;20429;-75
2024/03/31 09:51:03;;;;;;;8.85;3.58;;;666.00;1075.20;;;;;;5089690;28;20488;-74
2024/03/31 09:53:31;;;;;;;16.52;4.15;;;666.00;1024.00;;;;;;5083399;28;20093;-76
2024/03/31 09:56:02;;;;;;;21.10;4.32;;;665.90;998.40;;;;;;5086264;28;20702;-75
2024/03/31 09:58:32;;;;;;;14.77;3.90;;;665.90;998.40;;;;;;5097689;28;20025;-73
2024/03/31 10:01:00;;;;;;;19.23;4.60;;;666.00;1024.00;;;;;;5093176;28;20024;-73
2024/03/31 10:03:31;;;;;;;13.65;4.03;;;666.00;998.40;;;;;;5100208;28;20031;-74
2024/03/31 10:05:58;;;;;;;12.63;4.32;;;666.20;998.40;;;;;;5085765;28;20059;-75
2024/03/31 10:08:29;;;;;;;18.40;4.43;;;666.00;1024.00;;;;;;5073238;28;20032;-75
2024/03/31 10:10:57;;;;;;;18.60;4.50;;;666.40;998.40;;;;;;5077456;28;20067;-75
2024/03/31 10:13:28;;;;;;;10.50;3.90;;;691.20;998.40;;;;;;5080677;28;20125;-75
2024/03/31 10:15:57;;;;;;;14.15;3.72;;;691.60;998.40;;;;;;5093471;28;20142;-74
2024/03/31 10:18:27;;;;;;;15.10;3.65;;;691.70;1024.00;;;;;;5095237;28;20072;-74
2024/03/31 10:20:55;;;;;;;10.80;3.53;;;691.80;1024.00;;;;;;5091419;28;20015;-77
2024/03/31 10:23:24;;;;;;;16.95;3.28;;;691.40;998.40;;;;;;5092612;28;20130;-76
2024/03/31 10:25:52;;;;;;;22.17;4.03;;;691.60;1024.00;;;;;;5075551;28;20024;-76
2024/03/31 10:28:19;;;;;;;10.52;3.00;;;691.80;1024.00;;;;;;5090610;28;20098;-76
2024/03/31 10:30:45;;;;;;;13.57;4.25;;;691.40;1024.00;;;;;;5091684;28;20027;-76
2024/03/31 10:33:12;;;;;;;14.20;3.53;;;691.60;1024.00;;;;;;5092750;28;20032;-75
2024/03/31 10:35:40;;;;;;;11.60;3.65;;;691.70;1024.00;;;;;;5087107;28;20025;-75
2024/03/31 10:38:10;;;;;;;23.30;4.25;;;691.70;998.40;;;;;;5084567;28;20419;-76
2024/03/31 10:40:37;;;;;;;13.35;2.72;;;692.10;1049.60;;;;;;5068591;28;20026;-75
2024/03/31 10:43:05;;;;;;;13.82;3.67;;;716.90;1049.60;;;;;;5082633;28;20020;-77
2024/03/31 10:45:31;;;;;;;13.00;4.32;;;716.90;1024.00;;;;;;5090918;28;20042;-76
2024/03/31 10:47:57;;;;;;;14.13;3.35;;;717.10;998.40;;;;;;5081439;28;20016;-76
2024/03/31 10:50:26;;;;;;;18.70;4.20;;;716.90;1024.00;;;;;;5085747;28;20023;-76
2024/03/31 10:52:53;;;;;;;13.15;3.80;;;717.00;947.20;;;;;;5080689;28;20028;-75
2024/03/31 10:55:20;;;;;;;16.75;3.97;;;717.00;1049.60;;;;;;5060804;28;20043;-74
2024/03/31 10:57:58;;;;;;;14.10;3.72;;;716.90;1024.00;;;;;;5094122;28;20078;-75
2024/03/31 11:00:24;;;;;;;18.50;4.32;;;716.80;1024.00;;;;;;5098468;28;20480;-75
2024/03/31 11:02:51;;;;;;;13.50;4.38;;;716.90;1049.60;;;;;;5094241;28;20393;-74
2024/03/31 11:05:20;;;;;;;15.65;3.80;;;717.10;1024.00;;;;;;5098152;28;20020;-75
2024/03/31 11:07:47;;;;;;;13.63;4.40;;;717.00;1024.00;;;;;;5075428;28;20031;-75
2024/03/31 11:10:14;;;;;;;17.23;3.42;;;716.90;1024.00;;;;;;5095134;28;20016;-75
2024/03/31 11:12:44;;;;;;;21.27;3.95;;;716.90;1024.00;;;;;;5096897;28;20106;-75
2024/03/31 11:15:12;;;;;;;19.20;4.68;;;717.10;998.40;;;;;;5085469;28;20115;-75
2024/03/31 11:17:40;;;;;;;18.42;3.97;;;717.20;1024.00;;;;;;5081279;28;20024;-75
2024/03/31 11:20:07;;;;;;;18.58;5.13;;;717.20;998.40;;;;;;5083084;28;20028;-75
2024/03/31 11:22:34;;;;;;;16.08;4.78;;;717.30;1024.00;;;;;;5091735;28;20024;-75
2024/03/31 11:25:01;;;;;;;21.55;4.35;;;717.40;998.40;;;;;;5093092;28;20039;-76
2024/03/31 11:27:27;;;;;;;25.63;3.67;;;717.50;998.40;;;;;;5101778;28;20107;-75
2024/03/31 11:29:54;;;;;;;16.08;4.47;;;717.50;998.40;;;;;;5092247;28;20044;-75
2024/03/31 11:32:20;;;;;;;17.25;4.68;;;717.70;998.40;;;;;;5100275;28;20066;-74
2024/03/31 11:34:46;;;;;;;19.58;4.82;;;742.40;998.40;;;;;;5099213;28;20020;-75
2024/03/31 11:37:12;;;;;;;17.17;4.60;;;742.50;1024.00;;;;;;5075389;28;20020;-75
2024/03/31 11:39:38;;;;;;;19.45;4.07;;;742.60;1024.00;;;;;;5096897;28;20494;-75
2024/03/31 11:42:05;;;;;;;19.77;3.85;;;742.50;998.40;;;;;;5101100;28;20031;-75
2024/03/31 11:44:32;;;;;;;10.82;3.92;;;742.60;1024.00;;;;;;5091259;28;20027;-74
2024/03/31 11:47:02;;;;;;;21.20;4.57;;;742.60;998.40;;;;;;5094092;28;20027;-76
2024/03/31 11:49:29;;;;;;;17.73;5.28;;;742.60;998.40;;;;;;5071352;28;20025;-75
2024/03/31 11:51:56;;;;;;;20.42;5.43;;;742.80;998.40;;;;;;5082761;28;20043;-75
2024/03/31 11:54:22;;;;;;;16.27;4.53;;;742.70;998.40;;;;;;5089913;28;20473;-75
2024/03/31 11:56:48;;;;;;;14.45;4.00;;;742.70;998.40;;;;;;5098639;28;20076;-75
2024/03/31 11:59:18;;;;;;;26.20;6.05;;;742.80;998.40;;;;;;5092545;28;20095;-74
2024/03/31 12:01:44;;;;;;;17.40;4.95;;;742.80;998.40;;;;;;5095055;28;20103;-74
2024/03/31 12:04:19;;;;;;;14.15;4.22;;;742.80;998.40;;;;;;5092559;28;20384;-74
2024/03/31 12:06:45;;;;;;;20.40;4.68;;;742.90;998.40;;;;;;5077791;28;20028;-73
2024/03/31 12:09:13;;;;;;;23.55;5.43;;;742.80;998.40;;;;;;5092558;28;20495;-75
2024/03/31 12:11:42;;;;;;;26.90;5.07;;;743.10;998.40;;;;;;5095778;28;20150;-74